Country
Station

 

Weather  for  Mont Joli, Que.  -  Canada    Canada

  
23 °C (73 °F)
    
 
 

Current METAR for Mont Joli, Que. is :

CYYY 171100Z 17010KT 15SM FEW120 BKN240 23/16 A2971 RMK AC2CI5 SLP062 DENSITY ALT 1400FT

 

This is a report for Mont Joli, Que. - Canada.
 
The report was made 32 minutes ago, at 11:00 UTC .
The wind was blowing at a speed of 5.1 meters per second (11.5 miles per hour) from south (170°).
 
The temperature was 23 °C (73 °F), with a dew-point at 16 °C (61 °F).
The temperature felt like 24 °C (76 °F).
 
The atmospheric pressure was 1006 hPa (29.71 inHg).
The relative humidity was 64.7%.
 
There were a few clouds at a height of 3658 meters (12000 feet) and broken clouds at a height of 7315 meters (24000 feet).
 
The overall visibility was 24.1 kilometers (15.0 miles).
 

 
 
 
 

Country :   A   B   C   D   E   F   G   H   I   J   K   L   M   N   O   P   Q   R   S   T   U   V   W   Y   Z

 

Site Info  |  Disclaimer  |  Credits  |  Privacy
Contact us  |  Add to favorites
© 2013-2018 METARs - All rights reserved